sensor_id;sensor_type;location;lat;lon;timestamp;temperature;humidity
18577;DHT22;9418;52.694;13.294;2023-04-15T00:01:34;7.70;99.90
18577;DHT22;9418;52.694;13.294;2023-04-15T00:04:01;7.80;99.90
18577;DHT22;9418;52.694;13.294;2023-04-15T00:06:30;7.80;99.90
18577;DHT22;9418;52.694;13.294;2023-04-15T00:08:56;7.80;99.90
18577;DHT22;9418;52.694;13.294;2023-04-15T00:11:23;7.80;99.90
18577;DHT22;9418;52.694;13.294;2023-04-15T00:13:50;7.80;99.90
18577;DHT22;9418;52.694;13.294;2023-04-15T00:16:16;7.80;99.90
18577;DHT22;9418;52.694;13.294;2023-04-15T00:18:43;7.80;99.90
18577;DHT22;9418;52.694;13.294;2023-04-15T00:21:10;7.70;99.90
18577;DHT22;9418;52.694;13.294;2023-04-15T00:23:38;7.70;99.90
18577;DHT22;9418;52.694;13.294;2023-04-15T00:26:04;7.80;99.90
18577;DHT22;9418;52.694;13.294;2023-04-15T00:28:31;7.70;99.90
18577;DHT22;9418;52.694;13.294;2023-04-15T00:30:58;7.80;99.90
18577;DHT22;9418;52.694;13.294;2023-04-15T00:33:25;7.80;99.90
18577;DHT22;9418;52.694;13.294;2023-04-15T00:35:51;7.70;99.90
18577;DHT22;9418;52.694;13.294;2023-04-15T00:38:18;7.80;99.90
18577;DHT22;9418;52.694;13.294;2023-04-15T00:40:46;7.80;99.90
18577;DHT22;9418;52.694;13.294;2023-04-15T00:43:13;7.80;99.90
18577;DHT22;9418;52.694;13.294;2023-04-15T00:45:40;7.80;99.90
18577;DHT22;9418;52.694;13.294;2023-04-15T00:48:07;7.70;99.90
18577;DHT22;9418;52.694;13.294;2023-04-15T00:50:34;7.80;99.90
18577;DHT22;9418;52.694;13.294;2023-04-15T00:53:01;7.70;99.90
18577;DHT22;9418;52.694;13.294;2023-04-15T00:55:27;7.80;99.90
18577;DHT22;9418;52.694;13.294;2023-04-15T01:00:24;7.70;99.90
18577;DHT22;9418;52.694;13.294;2023-04-15T01:02:51;7.80;99.90
18577;DHT22;9418;52.694;13.294;2023-04-15T01:05:18;7.80;99.90
18577;DHT22;9418;52.694;13.294;2023-04-15T01:07:46;7.80;99.90
18577;DHT22;9418;52.694;13.294;2023-04-15T01:10:13;7.80;99.90
18577;DHT22;9418;52.694;13.294;2023-04-15T01:12:39;7.80;99.90
18577;DHT22;9418;52.694;13.294;2023-04-15T01:15:07;7.80;99.90
18577;DHT22;9418;52.694;13.294;2023-04-15T01:17:37;7.80;99.90
18577;DHT22;9418;52.694;13.294;2023-04-15T01:20:05;7.80;99.90
18577;DHT22;9418;52.694;13.294;2023-04-15T01:22:34;7.80;99.90
18577;DHT22;9418;52.694;13.294;2023-04-15T01:25:05;7.80;99.90
18577;DHT22;9418;52.694;13.294;2023-04-15T01:27:34;7.80;99.90
18577;DHT22;9418;52.694;13.294;2023-04-15T01:30:01;7.80;99.90
18577;DHT22;9418;52.694;13.294;2023-04-15T01:32:29;7.80;99.90
18577;DHT22;9418;52.694;13.294;2023-04-15T01:34:56;7.80;99.90
18577;DHT22;9418;52.694;13.294;2023-04-15T01:37:23;7.80;99.90
18577;DHT22;9418;52.694;13.294;2023-04-15T01:39:50;7.80;99.90
18577;DHT22;9418;52.694;13.294;2023-04-15T01:42:17;7.80;99.90
18577;DHT22;9418;52.694;13.294;2023-04-15T01:44:45;7.80;99.90
18577;DHT22;9418;52.694;13.294;2023-04-15T01:47:11;7.80;99.90
18577;DHT22;9418;52.694;13.294;2023-04-15T01:49:38;7.80;99.90
18577;DHT22;9418;52.694;13.294;2023-04-15T01:52:05;7.80;99.90
18577;DHT22;9418;52.694;13.294;2023-04-15T01:54:32;7.80;99.90
18577;DHT22;9418;52.694;13.294;2023-04-15T01:56:58;7.80;99.90
18577;DHT22;9418;52.694;13.294;2023-04-15T01:59:26;7.80;99.90
18577;DHT22;9418;52.694;13.294;2023-04-15T02:01:54;7.80;99.90
18577;DHT22;9418;52.694;13.294;2023-04-15T02:04:21;7.80;99.90
18577;DHT22;9418;52.694;13.294;2023-04-15T02:06:48;7.80;99.90
18577;DHT22;9418;52.694;13.294;2023-04-15T02:09:14;7.80;99.90
18577;DHT22;9418;52.694;13.294;2023-04-15T02:11:41;7.80;99.90
18577;DHT22;9418;52.694;13.294;2023-04-15T02:14:08;7.80;99.90
18577;DHT22;9418;52.694;13.294;2023-04-15T02:16:34;7.80;99.90
18577;DHT22;9418;52.694;13.294;2023-04-15T02:19:02;7.80;99.90
18577;DHT22;9418;52.694;13.294;2023-04-15T02:21:29;7.80;99.90
18577;DHT22;9418;52.694;13.294;2023-04-15T02:23:56;7.80;99.90
18577;DHT22;9418;52.694;13.294;2023-04-15T02:26:22;7.80;99.90
18577;DHT22;9418;52.694;13.294;2023-04-15T02:28:50;7.80;99.90
18577;DHT22;9418;52.694;13.294;2023-04-15T02:31:17;7.80;99.90
18577;DHT22;9418;52.694;13.294;2023-04-15T02:33:43;7.80;99.90
18577;DHT22;9418;52.694;13.294;2023-04-15T02:36:12;7.80;99.90
18577;DHT22;9418;52.694;13.294;2023-04-15T02:38:38;7.80;99.90
18577;DHT22;9418;52.694;13.294;2023-04-15T02:41:07;7.80;99.90
18577;DHT22;9418;52.694;13.294;2023-04-15T02:43:34;7.80;99.90
18577;DHT22;9418;52.694;13.294;2023-04-15T02:46:01;7.80;99.90
18577;DHT22;9418;52.694;13.294;2023-04-15T02:48:27;7.80;99.90
18577;DHT22;9418;52.694;13.294;2023-04-15T02:51:14;7.80;99.90
18577;DHT22;9418;52.694;13.294;2023-04-15T02:53:41;7.80;99.90
18577;DHT22;9418;52.694;13.294;2023-04-15T02:56:07;7.80;99.90
18577;DHT22;9418;52.694;13.294;2023-04-15T02:58:34;7.80;99.90
18577;DHT22;9418;52.694;13.294;2023-04-15T03:01:01;7.80;99.90
18577;DHT22;9418;52.694;13.294;2023-04-15T03:03:28;7.80;99.90
18577;DHT22;9418;52.694;13.294;2023-04-15T03:05:55;7.80;99.90
18577;DHT22;9418;52.694;13.294;2023-04-15T03:08:23;7.80;99.90
18577;DHT22;9418;52.694;13.294;2023-04-15T03:10:49;7.80;99.90
18577;DHT22;9418;52.694;13.294;2023-04-15T03:13:18;7.90;99.90
18577;DHT22;9418;52.694;13.294;2023-04-15T03:15:45;7.80;99.90
18577;DHT22;9418;52.694;13.294;2023-04-15T03:18:12;7.80;99.90
18577;DHT22;9418;52.694;13.294;2023-04-15T03:20:38;7.80;99.90
18577;DHT22;9418;52.694;13.294;2023-04-15T03:23:05;7.90;99.90
18577;DHT22;9418;52.694;13.294;2023-04-15T03:25:33;7.80;99.90
18577;DHT22;9418;52.694;13.294;2023-04-15T03:28:02;7.90;99.90
18577;DHT22;9418;52.694;13.294;2023-04-15T03:30:29;7.90;99.90
18577;DHT22;9418;52.694;13.294;2023-04-15T03:32:55;7.90;99.90
18577;DHT22;9418;52.694;13.294;2023-04-15T03:35:22;7.90;99.90
18577;DHT22;9418;52.694;13.294;2023-04-15T03:37:49;7.90;99.90
18577;DHT22;9418;52.694;13.294;2023-04-15T03:40:16;7.90;99.90
18577;DHT22;9418;52.694;13.294;2023-04-15T03:42:43;7.90;99.90
18577;DHT22;9418;52.694;13.294;2023-04-15T03:45:10;7.90;99.90
18577;DHT22;9418;52.694;13.294;2023-04-15T03:47:37;7.90;99.90
18577;DHT22;9418;52.694;13.294;2023-04-15T03:50:04;7.90;99.90
18577;DHT22;9418;52.694;13.294;2023-04-15T03:52:31;7.90;99.90
18577;DHT22;9418;52.694;13.294;2023-04-15T03:54:58;7.90;99.90
18577;DHT22;9418;52.694;13.294;2023-04-15T03:57:24;7.90;99.90
18577;DHT22;9418;52.694;13.294;2023-04-15T03:59:53;7.90;99.90
18577;DHT22;9418;52.694;13.294;2023-04-15T04:02:19;7.90;99.90
18577;DHT22;9418;52.694;13.294;2023-04-15T04:04:47;7.90;99.90
18577;DHT22;9418;52.694;13.294;2023-04-15T04:07:14;7.90;99.90
18577;DHT22;9418;52.694;13.294;2023-04-15T04:09:41;7.90;99.90
18577;DHT22;9418;52.694;13.294;2023-04-15T04:12:08;7.90;99.90
18577;DHT22;9418;52.694;13.294;2023-04-15T04:14:35;7.90;99.90
18577;DHT22;9418;52.694;13.294;2023-04-15T04:17:03;7.90;99.90
18577;DHT22;9418;52.694;13.294;2023-04-15T04:19:30;7.90;99.90
18577;DHT22;9418;52.694;13.294;2023-04-15T04:21:56;7.90;99.90
18577;DHT22;9418;52.694;13.294;2023-04-15T04:24:23;7.90;99.90
18577;DHT22;9418;52.694;13.294;2023-04-15T04:26:49;7.90;99.90
18577;DHT22;9418;52.694;13.294;2023-04-15T04:29:16;7.90;99.90
18577;DHT22;9418;52.694;13.294;2023-04-15T04:31:43;7.90;99.90
18577;DHT22;9418;52.694;13.294;2023-04-15T04:34:11;7.90;99.90
18577;DHT22;9418;52.694;13.294;2023-04-15T04:36:38;7.90;99.90
18577;DHT22;9418;52.694;13.294;2023-04-15T04:39:04;7.90;99.90
18577;DHT22;9418;52.694;13.294;2023-04-15T04:41:31;8.00;99.90
18577;DHT22;9418;52.694;13.294;2023-04-15T04:43:58;7.90;99.90
18577;DHT22;9418;52.694;13.294;2023-04-15T04:46:25;8.00;99.90
18577;DHT22;9418;52.694;13.294;2023-04-15T04:48:51;8.00;99.90
18577;DHT22;9418;52.694;13.294;2023-04-15T04:51:19;8.00;99.90
18577;DHT22;9418;52.694;13.294;2023-04-15T04:53:46;8.00;99.90
18577;DHT22;9418;52.694;13.294;2023-04-15T04:56:13;8.00;99.90
18577;DHT22;9418;52.694;13.294;2023-04-15T04:58:39;8.00;99.90
18577;DHT22;9418;52.694;13.294;2023-04-15T05:01:06;8.00;99.90
18577;DHT22;9418;52.694;13.294;2023-04-15T05:03:33;8.00;99.90
18577;DHT22;9418;52.694;13.294;2023-04-15T05:06:00;8.00;99.90
18577;DHT22;9418;52.694;13.294;2023-04-15T05:08:31;8.10;99.90
18577;DHT22;9418;52.694;13.294;2023-04-15T05:10:58;8.10;99.90
18577;DHT22;9418;52.694;13.294;2023-04-15T05:13:25;8.10;99.90
18577;DHT22;9418;52.694;13.294;2023-04-15T05:15:51;8.10;99.90
18577;DHT22;9418;52.694;13.294;2023-04-15T05:18:18;8.20;99.90
18577;DHT22;9418;52.694;13.294;2023-04-15T05:20:45;8.20;99.90
18577;DHT22;9418;52.694;13.294;2023-04-15T05:23:11;8.20;99.90
18577;DHT22;9418;52.694;13.294;2023-04-15T05:25:39;8.20;99.90
18577;DHT22;9418;52.694;13.294;2023-04-15T05:28:06;8.30;99.90
18577;DHT22;9418;52.694;13.294;2023-04-15T05:30:33;8.40;99.90
18577;DHT22;9418;52.694;13.294;2023-04-15T05:33:00;8.40;99.90
18577;DHT22;9418;52.694;13.294;2023-04-15T05:35:26;8.40;99.90
18577;DHT22;9418;52.694;13.294;2023-04-15T05:37:53;8.40;99.90
18577;DHT22;9418;52.694;13.294;2023-04-15T05:40:20;8.50;99.90
18577;DHT22;9418;52.694;13.294;2023-04-15T05:42:48;8.50;99.90
18577;DHT22;9418;52.694;13.294;2023-04-15T05:45:14;8.50;99.90
18577;DHT22;9418;52.694;13.294;2023-04-15T05:47:41;8.50;99.90
18577;DHT22;9418;52.694;13.294;2023-04-15T05:50:08;8.60;99.90
18577;DHT22;9418;52.694;13.294;2023-04-15T05:52:35;8.60;99.90
18577;DHT22;9418;52.694;13.294;2023-04-15T05:55:02;8.60;99.90
18577;DHT22;9418;52.694;13.294;2023-04-15T05:57:29;8.70;99.90
18577;DHT22;9418;52.694;13.294;2023-04-15T05:59:57;8.70;99.90
18577;DHT22;9418;52.694;13.294;2023-04-15T06:02:23;8.80;99.90
18577;DHT22;9418;52.694;13.294;2023-04-15T06:04:50;8.80;99.90
18577;DHT22;9418;52.694;13.294;2023-04-15T06:07:18;8.90;99.90
18577;DHT22;9418;52.694;13.294;2023-04-15T06:09:44;9.00;99.90
18577;DHT22;9418;52.694;13.294;2023-04-15T06:12:11;9.00;99.90
18577;DHT22;9418;52.694;13.294;2023-04-15T06:14:38;9.10;99.90
18577;DHT22;9418;52.694;13.294;2023-04-15T06:17:06;9.10;99.90
18577;DHT22;9418;52.694;13.294;2023-04-15T06:19:33;9.10;99.90
18577;DHT22;9418;52.694;13.294;2023-04-15T06:22:00;9.20;99.90
18577;DHT22;9418;52.694;13.294;2023-04-15T06:24:27;9.20;99.90
18577;DHT22;9418;52.694;13.294;2023-04-15T06:26:54;9.30;99.90
18577;DHT22;9418;52.694;13.294;2023-04-15T06:29:21;9.40;99.90
18577;DHT22;9418;52.694;13.294;2023-04-15T06:31:48;9.40;99.90
18577;DHT22;9418;52.694;13.294;2023-04-15T06:34:16;9.50;99.90
18577;DHT22;9418;52.694;13.294;2023-04-15T06:36:43;9.60;99.90
18577;DHT22;9418;52.694;13.294;2023-04-15T06:39:10;9.80;99.90
18577;DHT22;9418;52.694;13.294;2023-04-15T06:41:36;9.90;99.90
18577;DHT22;9418;52.694;13.294;2023-04-15T06:44:03;10.00;99.90
18577;DHT22;9418;52.694;13.294;2023-04-15T06:46:30;9.90;99.90
18577;DHT22;9418;52.694;13.294;2023-04-15T06:48:57;10.00;99.90
18577;DHT22;9418;52.694;13.294;2023-04-15T06:51:24;10.10;99.90
18577;DHT22;9418;52.694;13.294;2023-04-15T06:53:51;10.20;99.90
18577;DHT22;9418;52.694;13.294;2023-04-15T06:56:18;10.40;99.90
18577;DHT22;9418;52.694;13.294;2023-04-15T06:58:45;10.40;99.90
18577;DHT22;9418;52.694;13.294;2023-04-15T07:01:11;10.40;99.90
18577;DHT22;9418;52.694;13.294;2023-04-15T07:03:38;10.50;99.90
18577;DHT22;9418;52.694;13.294;2023-04-15T07:06:06;10.50;99.90
18577;DHT22;9418;52.694;13.294;2023-04-15T07:08:35;10.60;99.90
18577;DHT22;9418;52.694;13.294;2023-04-15T07:11:02;10.60;76.20
18577;DHT22;9418;52.694;13.294;2023-04-15T07:13:30;10.70;98.10
18577;DHT22;9418;52.694;13.294;2023-04-15T07:15:57;10.70;99.90
18577;DHT22;9418;52.694;13.294;2023-04-15T07:18:23;10.60;24.90
18577;DHT22;9418;52.694;13.294;2023-04-15T07:20:50;10.70;23.20
18577;DHT22;9418;52.694;13.294;2023-04-15T07:23:17;10.70;21.50
18577;DHT22;9418;52.694;13.294;2023-04-15T07:25:45;10.60;38.80
18577;DHT22;9418;52.694;13.294;2023-04-15T07:28:11;10.50;34.30
18577;DHT22;9418;52.694;13.294;2023-04-15T07:30:38;10.50;22.90
18577;DHT22;9418;52.694;13.294;2023-04-15T07:33:04;10.40;21.30
18577;DHT22;9418;52.694;13.294;2023-04-15T07:35:31;10.40;91.80
18577;DHT22;9418;52.694;13.294;2023-04-15T07:37:58;10.40;94.70
18577;DHT22;9418;52.694;13.294;2023-04-15T07:40:24;10.30;75.80
18577;DHT22;9418;52.694;13.294;2023-04-15T07:42:52;10.20;84.30
18577;DHT22;9418;52.694;13.294;2023-04-15T07:45:19;10.30;95.70
18577;DHT22;9418;52.694;13.294;2023-04-15T07:47:46;10.30;99.90
18577;DHT22;9418;52.694;13.294;2023-04-15T07:50:13;10.30;99.90
18577;DHT22;9418;52.694;13.294;2023-04-15T07:52:40;10.20;26.20
18577;DHT22;9418;52.694;13.294;2023-04-15T07:55:09;10.20;21.20
18577;DHT22;9418;52.694;13.294;2023-04-15T07:57:36;10.30;87.40
18577;DHT22;9418;52.694;13.294;2023-04-15T08:00:05;10.40;82.20
18577;DHT22;9418;52.694;13.294;2023-04-15T08:02:32;10.40;83.80
18577;DHT22;9418;52.694;13.294;2023-04-15T08:04:58;10.40;29.60
18577;DHT22;9418;52.694;13.294;2023-04-15T08:07:27;10.50;20.30
18577;DHT22;9418;52.694;13.294;2023-04-15T08:09:53;10.50;34.30
18577;DHT22;9418;52.694;13.294;2023-04-15T08:12:20;10.60;35.80
18577;DHT22;9418;52.694;13.294;2023-04-15T08:14:47;10.60;35.10
18577;DHT22;9418;52.694;13.294;2023-04-15T08:17:15;10.60;33.20
18577;DHT22;9418;52.694;13.294;2023-04-15T08:19:41;10.40;48.00
18577;DHT22;9418;52.694;13.294;2023-04-15T08:22:09;10.40;44.60
18577;DHT22;9418;52.694;13.294;2023-04-15T08:24:36;10.40;43.00
18577;DHT22;9418;52.694;13.294;2023-04-15T08:27:03;10.30;49.00
18577;DHT22;9418;52.694;13.294;2023-04-15T08:29:30;10.40;42.00
18577;DHT22;9418;52.694;13.294;2023-04-15T08:31:58;10.50;29.90
18577;DHT22;9418;52.694;13.294;2023-04-15T08:34:26;10.50;29.40
18577;DHT22;9418;52.694;13.294;2023-04-15T08:36:53;10.70;25.70
18577;DHT22;9418;52.694;13.294;2023-04-15T08:39:19;10.70;26.70
18577;DHT22;9418;52.694;13.294;2023-04-15T08:41:50;10.80;28.50
18577;DHT22;9418;52.694;13.294;2023-04-15T08:44:17;10.80;32.20
18577;DHT22;9418;52.694;13.294;2023-04-15T08:46:44;10.90;41.80
18577;DHT22;9418;52.694;13.294;2023-04-15T08:49:11;10.90;39.00
18577;DHT22;9418;52.694;13.294;2023-04-15T08:51:40;10.90;49.40
18577;DHT22;9418;52.694;13.294;2023-04-15T08:54:07;10.80;47.00
18577;DHT22;9418;52.694;13.294;2023-04-15T08:56:35;10.90;41.70
18577;DHT22;9418;52.694;13.294;2023-04-15T08:59:02;10.90;42.80
18577;DHT22;9418;52.694;13.294;2023-04-15T09:01:31;10.90;41.80
18577;DHT22;9418;52.694;13.294;2023-04-15T09:03:58;10.90;59.50
18577;DHT22;9418;52.694;13.294;2023-04-15T09:06:25;10.80;71.30
18577;DHT22;9418;52.694;13.294;2023-04-15T09:08:53;10.90;55.40
18577;DHT22;9418;52.694;13.294;2023-04-15T09:11:21;10.90;59.70
18577;DHT22;9418;52.694;13.294;2023-04-15T09:13:48;10.90;54.40
18577;DHT22;9418;52.694;13.294;2023-04-15T09:16:14;10.80;61.20
18577;DHT22;9418;52.694;13.294;2023-04-15T09:18:41;10.90;58.20
18577;DHT22;9418;52.694;13.294;2023-04-15T09:21:10;10.90;54.80
18577;DHT22;9418;52.694;13.294;2023-04-15T09:23:38;11.00;48.60
18577;DHT22;9418;52.694;13.294;2023-04-15T09:26:06;11.00;49.20
18577;DHT22;9418;52.694;13.294;2023-04-15T09:28:33;11.00;54.50
18577;DHT22;9418;52.694;13.294;2023-04-15T09:31:06;11.00;56.50
18577;DHT22;9418;52.694;13.294;2023-04-15T09:33:33;11.00;67.40
18577;DHT22;9418;52.694;13.294;2023-04-15T09:36:01;11.00;58.30
18577;DHT22;9418;52.694;13.294;2023-04-15T09:38:28;10.90;79.90
18577;DHT22;9418;52.694;13.294;2023-04-15T09:40:55;11.00;71.60
18577;DHT22;9418;52.694;13.294;2023-04-15T09:43:36;11.00;65.00
18577;DHT22;9418;52.694;13.294;2023-04-15T09:46:03;11.10;80.40
18577;DHT22;9418;52.694;13.294;2023-04-15T09:48:30;11.10;67.70
18577;DHT22;9418;52.694;13.294;2023-04-15T09:50:57;11.10;79.20
18577;DHT22;9418;52.694;13.294;2023-04-15T09:53:25;11.20;72.70
18577;DHT22;9418;52.694;13.294;2023-04-15T09:55:53;11.20;68.20
18577;DHT22;9418;52.694;13.294;2023-04-15T09:58:23;11.20;60.80
18577;DHT22;9418;52.694;13.294;2023-04-15T10:00:51;11.20;64.10
18577;DHT22;9418;52.694;13.294;2023-04-15T10:03:20;11.20;65.00
18577;DHT22;9418;52.694;13.294;2023-04-15T10:05:48;11.20;68.00
18577;DHT22;9418;52.694;13.294;2023-04-15T10:08:17;11.20;64.40
18577;DHT22;9418;52.694;13.294;2023-04-15T10:10:44;11.20;78.70
18577;DHT22;9418;52.694;13.294;2023-04-15T10:13:12;11.20;67.30
18577;DHT22;9418;52.694;13.294;2023-04-15T10:15:43;11.10;75.50
18577;DHT22;9418;52.694;13.294;2023-04-15T10:18:10;11.10;73.00
18577;DHT22;9418;52.694;13.294;2023-04-15T10:20:41;11.10;70.50
18577;DHT22;9418;52.694;13.294;2023-04-15T10:23:08;11.00;63.90
18577;DHT22;9418;52.694;13.294;2023-04-15T10:25:35;11.00;56.30
18577;DHT22;9418;52.694;13.294;2023-04-15T10:28:03;11.00;81.70
18577;DHT22;9418;52.694;13.294;2023-04-15T10:30:31;11.10;61.30
18577;DHT22;9418;52.694;13.294;2023-04-15T10:32:59;11.00;61.60
18577;DHT22;9418;52.694;13.294;2023-04-15T10:35:27;11.10;48.60
18577;DHT22;9418;52.694;13.294;2023-04-15T10:37:55;11.10;53.10
18577;DHT22;9418;52.694;13.294;2023-04-15T10:40:26;11.10;48.10
18577;DHT22;9418;52.694;13.294;2023-04-15T10:42:54;11.10;41.70
18577;DHT22;9418;52.694;13.294;2023-04-15T10:45:21;11.00;39.50
18577;DHT22;9418;52.694;13.294;2023-04-15T10:47:53;11.00;31.40
18577;DHT22;9418;52.694;13.294;2023-04-15T10:50:21;11.00;31.50
18577;DHT22;9418;52.694;13.294;2023-04-15T10:52:51;11.00;31.40
18577;DHT22;9418;52.694;13.294;2023-04-15T10:55:20;11.00;23.00
18577;DHT22;9418;52.694;13.294;2023-04-15T10:57:51;11.00;23.30
18577;DHT22;9418;52.694;13.294;2023-04-15T11:00:19;11.00;20.30
18577;DHT22;9418;52.694;13.294;2023-04-15T11:02:47;11.00;99.90
18577;DHT22;9418;52.694;13.294;2023-04-15T11:05:18;11.00;21.40
18577;DHT22;9418;52.694;13.294;2023-04-15T11:07:51;11.00;99.90
18577;DHT22;9418;52.694;13.294;2023-04-15T11:10:52;11.00;83.50
18577;DHT22;9418;52.694;13.294;2023-04-15T11:13:20;11.00;83.40
18577;DHT22;9418;52.694;13.294;2023-04-15T11:15:48;11.00;99.90
18577;DHT22;9418;52.694;13.294;2023-04-15T11:18:18;11.00;99.90
18577;DHT22;9418;52.694;13.294;2023-04-15T11:20:46;11.00;99.90
18577;DHT22;9418;52.694;13.294;2023-04-15T11:23:17;11.00;99.90
18577;DHT22;9418;52.694;13.294;2023-04-15T11:25:44;11.00;99.90
18577;DHT22;9418;52.694;13.294;2023-04-15T11:28:12;11.10;99.90
18577;DHT22;9418;52.694;13.294;2023-04-15T11:30:39;11.10;99.90
18577;DHT22;9418;52.694;13.294;2023-04-15T11:33:09;11.00;99.90
18577;DHT22;9418;52.694;13.294;2023-04-15T11:35:36;11.00;99.90
18577;DHT22;9418;52.694;13.294;2023-04-15T11:38:09;11.00;99.90
18577;DHT22;9418;52.694;13.294;2023-04-15T11:40:38;11.00;99.90
18577;DHT22;9418;52.694;13.294;2023-04-15T11:43:06;11.10;99.90
18577;DHT22;9418;52.694;13.294;2023-04-15T11:45:33;11.10;99.90
18577;DHT22;9418;52.694;13.294;2023-04-15T11:48:05;11.00;99.90
18577;DHT22;9418;52.694;13.294;2023-04-15T11:50:32;11.00;99.90
18577;DHT22;9418;52.694;13.294;2023-04-15T11:53:00;11.00;99.90
18577;DHT22;9418;52.694;13.294;2023-04-15T11:55:27;10.90;99.90
18577;DHT22;9418;52.694;13.294;2023-04-15T11:58:07;10.90;99.90
18577;DHT22;9418;52.694;13.294;2023-04-15T12:00:35;11.00;99.90
18577;DHT22;9418;52.694;13.294;2023-04-15T12:03:12;10.90;99.90
18577;DHT22;9418;52.694;13.294;2023-04-15T12:06:03;10.90;99.90
18577;DHT22;9418;52.694;13.294;2023-04-15T12:11:35;10.80;99.90
18577;DHT22;9418;52.694;13.294;2023-04-15T12:14:06;10.70;99.90
18577;DHT22;9418;52.694;13.294;2023-04-15T12:16:34;10.80;99.90
18577;DHT22;9418;52.694;13.294;2023-04-15T12:19:04;10.80;99.90
18577;DHT22;9418;52.694;13.294;2023-04-15T12:21:33;10.80;99.90
18577;DHT22;9418;52.694;13.294;2023-04-15T12:24:02;10.80;99.90
18577;DHT22;9418;52.694;13.294;2023-04-15T12:26:32;10.80;99.90
18577;DHT22;9418;52.694;13.294;2023-04-15T12:29:00;10.80;99.90
18577;DHT22;9418;52.694;13.294;2023-04-15T12:31:28;10.80;99.90
18577;DHT22;9418;52.694;13.294;2023-04-15T12:33:55;10.80;99.90
18577;DHT22;9418;52.694;13.294;2023-04-15T12:36:22;10.70;99.90
18577;DHT22;9418;52.694;13.294;2023-04-15T12:38:49;10.70;99.90
18577;DHT22;9418;52.694;13.294;2023-04-15T12:41:16;10.70;99.90
18577;DHT22;9418;52.694;13.294;2023-04-15T12:43:44;10.70;99.90
18577;DHT22;9418;52.694;13.294;2023-04-15T12:46:11;10.70;99.90
18577;DHT22;9418;52.694;13.294;2023-04-15T12:48:39;10.70;99.90
18577;DHT22;9418;52.694;13.294;2023-04-15T12:51:05;10.80;99.90
18577;DHT22;9418;52.694;13.294;2023-04-15T12:53:32;10.80;99.90
18577;DHT22;9418;52.694;13.294;2023-04-15T12:55:59;10.80;99.90
18577;DHT22;9418;52.694;13.294;2023-04-15T12:58:25;10.90;99.90
18577;DHT22;9418;52.694;13.294;2023-04-15T13:00:52;11.00;99.90
18577;DHT22;9418;52.694;13.294;2023-04-15T13:03:19;11.00;99.90
18577;DHT22;9418;52.694;13.294;2023-04-15T13:05:47;11.10;99.90
18577;DHT22;9418;52.694;13.294;2023-04-15T13:08:14;11.10;99.90
18577;DHT22;9418;52.694;13.294;2023-04-15T13:10:41;11.20;99.90
18577;DHT22;9418;52.694;13.294;2023-04-15T13:13:08;11.20;99.90
18577;DHT22;9418;52.694;13.294;2023-04-15T13:15:35;11.20;99.90
18577;DHT22;9418;52.694;13.294;2023-04-15T13:18:03;11.20;99.90
18577;DHT22;9418;52.694;13.294;2023-04-15T13:20:30;11.20;99.90
18577;DHT22;9418;52.694;13.294;2023-04-15T13:22:58;11.10;99.90
18577;DHT22;9418;52.694;13.294;2023-04-15T13:25:24;11.00;99.90
18577;DHT22;9418;52.694;13.294;2023-04-15T13:27:52;11.00;99.90
18577;DHT22;9418;52.694;13.294;2023-04-15T13:30:18;11.10;99.90
18577;DHT22;9418;52.694;13.294;2023-04-15T13:32:45;11.10;99.90
18577;DHT22;9418;52.694;13.294;2023-04-15T13:35:12;11.10;99.90
18577;DHT22;9418;52.694;13.294;2023-04-15T13:37:39;11.10;99.90
18577;DHT22;9418;52.694;13.294;2023-04-15T13:40:08;11.00;99.90
18577;DHT22;9418;52.694;13.294;2023-04-15T13:42:35;10.90;99.90
18577;DHT22;9418;52.694;13.294;2023-04-15T13:45:01;10.90;99.90
18577;DHT22;9418;52.694;13.294;2023-04-15T13:47:28;10.80;99.90
18577;DHT22;9418;52.694;13.294;2023-04-15T13:49:55;10.80;99.90
18577;DHT22;9418;52.694;13.294;2023-04-15T13:52:22;10.80;99.90
18577;DHT22;9418;52.694;13.294;2023-04-15T13:54:49;10.80;99.90
18577;DHT22;9418;52.694;13.294;2023-04-15T13:57:17;10.80;99.90
18577;DHT22;9418;52.694;13.294;2023-04-15T13:59:44;10.80;99.90
18577;DHT22;9418;52.694;13.294;2023-04-15T14:02:10;10.70;99.90
18577;DHT22;9418;52.694;13.294;2023-04-15T14:04:37;10.70;99.90
18577;DHT22;9418;52.694;13.294;2023-04-15T14:07:04;10.70;99.90
18577;DHT22;9418;52.694;13.294;2023-04-15T14:09:30;10.60;99.90
18577;DHT22;9418;52.694;13.294;2023-04-15T14:11:57;10.60;99.90
18577;DHT22;9418;52.694;13.294;2023-04-15T14:14:25;10.60;99.90
18577;DHT22;9418;52.694;13.294;2023-04-15T14:16:52;10.60;99.90
18577;DHT22;9418;52.694;13.294;2023-04-15T14:19:18;10.60;99.90
18577;DHT22;9418;52.694;13.294;2023-04-15T14:21:45;10.50;99.90
18577;DHT22;9418;52.694;13.294;2023-04-15T14:24:12;10.60;99.90
18577;DHT22;9418;52.694;13.294;2023-04-15T14:26:38;10.50;99.90
18577;DHT22;9418;52.694;13.294;2023-04-15T14:29:05;10.50;99.90
18577;DHT22;9418;52.694;13.294;2023-04-15T14:31:33;10.60;99.90
18577;DHT22;9418;52.694;13.294;2023-04-15T14:33:59;10.60;99.90
18577;DHT22;9418;52.694;13.294;2023-04-15T14:36:26;10.50;99.90
18577;DHT22;9418;52.694;13.294;2023-04-15T14:38:53;10.50;99.90
18577;DHT22;9418;52.694;13.294;2023-04-15T14:41:20;10.40;99.90
18577;DHT22;9418;52.694;13.294;2023-04-15T14:43:47;10.40;99.90
18577;DHT22;9418;52.694;13.294;2023-04-15T14:46:14;10.50;99.90
18577;DHT22;9418;52.694;13.294;2023-04-15T14:48:42;10.50;99.90
18577;DHT22;9418;52.694;13.294;2023-04-15T14:51:09;10.40;99.90
18577;DHT22;9418;52.694;13.294;2023-04-15T14:53:36;10.40;99.90
18577;DHT22;9418;52.694;13.294;2023-04-15T14:56:03;10.40;99.90
18577;DHT22;9418;52.694;13.294;2023-04-15T14:58:29;10.40;99.90
18577;DHT22;9418;52.694;13.294;2023-04-15T15:00:57;10.50;99.90
18577;DHT22;9418;52.694;13.294;2023-04-15T15:03:24;10.40;99.90
18577;DHT22;9418;52.694;13.294;2023-04-15T15:05:52;10.40;99.90
18577;DHT22;9418;52.694;13.294;2023-04-15T15:08:19;10.40;99.90
18577;DHT22;9418;52.694;13.294;2023-04-15T15:10:46;10.40;99.90
18577;DHT22;9418;52.694;13.294;2023-04-15T15:13:12;10.40;99.90
18577;DHT22;9418;52.694;13.294;2023-04-15T15:15:39;10.30;99.90
18577;DHT22;9418;52.694;13.294;2023-04-15T15:18:05;10.30;99.90
18577;DHT22;9418;52.694;13.294;2023-04-15T15:20:32;10.40;99.90
18577;DHT22;9418;52.694;13.294;2023-04-15T15:23:01;10.30;99.90
18577;DHT22;9418;52.694;13.294;2023-04-15T15:25:28;10.30;99.90
18577;DHT22;9418;52.694;13.294;2023-04-15T15:27:55;10.40;99.90
18577;DHT22;9418;52.694;13.294;2023-04-15T15:30:22;10.30;99.90
18577;DHT22;9418;52.694;13.294;2023-04-15T15:32:49;10.40;99.90
18577;DHT22;9418;52.694;13.294;2023-04-15T15:35:15;10.40;99.90
18577;DHT22;9418;52.694;13.294;2023-04-15T15:37:42;10.40;99.90
18577;DHT22;9418;52.694;13.294;2023-04-15T15:40:11;10.40;99.90
18577;DHT22;9418;52.694;13.294;2023-04-15T15:42:38;10.30;99.90
18577;DHT22;9418;52.694;13.294;2023-04-15T15:45:05;10.40;99.90